Time;durP1;ratioP1;P1;durP2;ratioP2;P2;SDS_P1;SDS_P2;PMS_P1;PMS_P2;Temp;Humidity;BMP_temperature;BMP_pressure;BME280_temperature;BME280_humidity;BME280_pressure;Samples;Min_cycle;Max_cycle;Signal;HPM_P1;HPM_P2
2023/01/13 00:00:00;;;;;;;13.27;2.83;;;;;;;7.50;100.00;100437.50;4974852;28;20070;-77
2023/01/13 00:02:26;;;;;;;14.88;2.70;;;;;;;7.51;100.00;100421.19;4975076;28;20501;-79
2023/01/13 00:04:51;;;;;;;13.63;2.38;;;;;;;7.61;100.00;100437.72;4975064;28;20023;-75
2023/01/13 00:07:17;;;;;;;14.90;2.85;;;;;;;7.28;100.00;100382.22;4975059;28;20023;-74
2023/01/13 00:09:42;;;;;;;13.93;3.83;;;;;;;7.51;100.00;100422.00;4973421;28;20031;-75
2023/01/13 00:12:07;;;;;;;24.25;3.10;;;;;;;7.47;100.00;100420.50;4974963;28;20030;-81
2023/01/13 00:14:36;;;;;;;13.15;2.70;;;;;;;7.42;100.00;100425.91;4974908;28;20499;-74
2023/01/13 00:17:02;;;;;;;21.85;3.55;;;;;;;7.32;100.00;100408.53;4974627;28;20525;-79
2023/01/13 00:19:28;;;;;;;15.18;3.33;;;;;;;7.18;100.00;100381.91;4974794;28;20164;-75
2023/01/13 00:21:53;;;;;;;16.67;3.50;;;;;;;7.09;100.00;100368.75;4974828;28;20125;-82
2023/01/13 00:24:19;;;;;;;16.50;3.72;;;;;;;7.17;100.00;100382.78;4974722;28;20027;-77
2023/01/13 00:26:44;;;;;;;16.80;3.97;;;;;;;7.10;100.00;100385.81;4973534;28;20023;-77
2023/01/13 00:29:10;;;;;;;19.65;3.45;;;;;;;7.15;100.00;100383.78;4974949;28;20023;-81
2023/01/13 00:31:35;;;;;;;17.63;2.97;;;;;;;7.14;100.00;100393.25;4974413;28;20046;-79
2023/01/13 00:34:01;;;;;;;17.27;3.80;;;;;;;7.06;100.00;100390.25;4974700;28;20494;-80
2023/01/13 00:36:28;;;;;;;17.67;3.58;;;;;;;6.93;100.00;100368.75;4974625;28;20031;-82
2023/01/13 00:38:53;;;;;;;14.68;3.47;;;;;;;6.84;100.00;100357.25;4974557;28;20035;-82
2023/01/13 00:41:22;;;;;;;18.00;4.15;;;;;;;6.82;100.00;100359.09;4974572;28;20026;-80
2023/01/13 00:43:48;;;;;;;18.95;3.88;;;;;;;6.92;100.00;100389.38;4974537;28;20059;-81
2023/01/13 00:46:16;;;;;;;19.98;3.40;;;;;;;6.79;100.00;100369.53;4974342;28;20390;-80
2023/01/13 00:48:42;;;;;;;15.15;3.58;;;;;;;6.86;100.00;100380.25;4974471;28;20030;-76
2023/01/13 00:51:13;;;;;;;16.30;3.58;;;;;;;6.92;100.00;100384.25;4974447;28;20030;-75
2023/01/13 00:53:42;;;;;;;20.27;4.03;;;;;;;6.90;100.00;100398.00;4974458;28;20030;-76
2023/01/13 00:56:14;;;;;;;25.85;4.15;;;;;;;6.93;100.00;100383.34;4974343;28;20023;-76
2023/01/13 00:58:40;;;;;;;17.17;4.10;;;;;;;6.84;100.00;100377.78;4974012;28;20127;-75
2023/01/13 01:01:09;;;;;;;23.60;3.67;;;;;;;6.89;100.00;100395.53;4973890;28;20117;-74
2023/01/13 01:03:34;;;;;;;16.60;3.90;;;;;;;6.86;100.00;100393.94;4973827;28;20019;-76
2023/01/13 01:06:06;;;;;;;23.83;4.30;;;;;;;6.81;100.00;100390.78;4974233;28;20041;-76
2023/01/13 01:08:32;;;;;;;21.88;4.05;;;;;;;6.82;100.00;100399.31;4974274;28;20022;-74
2023/01/13 01:11:06;;;;;;;18.15;3.45;;;;;;;6.88;100.00;100404.09;4974177;28;20027;-75
2023/01/13 01:13:32;;;;;;;18.98;4.00;;;;;;;6.93;100.00;100404.69;4973946;28;20054;-76
2023/01/13 01:15:57;;;;;;;19.38;3.80;;;;;;;6.90;100.00;100400.56;4956573;28;20035;-74
2023/01/13 01:18:23;;;;;;;24.35;4.15;;;;;;;6.98;100.00;100407.84;4974106;28;20374;-74
2023/01/13 01:20:48;;;;;;;19.92;3.67;;;;;;;6.94;100.00;100393.50;4956685;28;20026;-76
2023/01/13 01:23:13;;;;;;;22.55;4.72;;;;;;;7.06;100.00;100404.84;4974155;28;20441;-77
2023/01/13 01:25:39;;;;;;;23.05;4.10;;;;;;;7.09;100.00;100407.25;4973955;28;20119;-76
2023/01/13 01:28:04;;;;;;;20.42;4.30;;;;;;;7.07;100.00;100411.63;4974032;28;20027;-77
2023/01/13 01:30:29;;;;;;;18.58;3.40;;;;;;;7.04;100.00;100407.50;4973900;28;20113;-74
2023/01/13 01:32:56;;;;;;;19.50;3.83;;;;;;;7.05;100.00;100405.75;4973760;28;20030;-75
2023/01/13 01:35:22;;;;;;;16.05;3.50;;;;;;;7.00;100.00;100398.31;4973869;28;20602;-75
2023/01/13 01:37:47;;;;;;;24.45;3.90;;;;;;;6.87;100.00;100372.47;4973776;28;20081;-75
2023/01/13 01:40:13;;;;;;;21.55;3.85;;;;;;;6.92;100.00;100392.78;4974018;28;20027;-75
2023/01/13 01:45:25;;;;;;;21.92;4.68;;;;;;;6.76;100.00;100384.25;4973766;28;20093;-77
2023/01/13 01:47:59;;;;;;;17.13;3.15;;;;;;;6.86;100.00;100405.94;4973497;28;20078;-75
2023/01/13 01:50:26;;;;;;;24.90;3.53;;;;;;;6.81;100.00;100401.06;4973830;28;20446;-76
2023/01/13 01:53:00;;;;;;;18.55;3.25;;;;;;;6.70;100.00;100385.41;4973695;28;20042;-77
2023/01/13 01:55:30;;;;;;;20.67;3.97;;;;;;;6.74;100.00;100402.28;4974111;28;20544;-76
2023/01/13 01:57:56;;;;;;;23.25;4.65;;;;;;;6.72;100.00;100390.47;4973502;28;20057;-77
2023/01/13 02:00:22;;;;;;;21.02;4.72;;;;;;;6.63;100.00;100388.41;4973628;28;20117;-81
2023/01/13 02:02:49;;;;;;;21.05;3.72;;;;;;;6.53;100.00;100388.06;4973670;28;20031;-82
2023/01/13 02:05:14;;;;;;;26.23;4.18;;;;;;;6.55;100.00;100387.06;4973738;28;20027;-82
2023/01/13 02:07:42;;;;;;;21.58;4.10;;;;;;;6.49;100.00;100374.56;4973566;28;20031;-82
2023/01/13 02:10:12;;;;;;;24.17;4.72;;;;;;;6.54;100.00;100392.28;4973532;28;20026;-82
2023/01/13 02:12:39;;;;;;;28.45;5.55;;;;;;;6.35;100.00;100358.25;4973353;28;20038;-81
2023/01/13 02:15:04;;;;;;;23.70;4.60;;;;;;;6.52;100.00;100392.38;4974445;28;20019;-81
2023/01/13 02:17:39;;;;;;;22.70;4.25;;;;;;;6.49;100.00;100386.53;4976978;28;20034;-81
2023/01/13 02:20:17;;;;;;;25.65;4.38;;;;;;;6.46;100.00;100391.84;4977162;28;20525;-82
2023/01/13 02:22:57;;;;;;;18.52;4.63;;;;;;;6.45;100.00;100385.06;4977377;28;20027;-82
2023/01/13 02:25:38;;;;;;;22.30;4.65;;;;;;;6.44;100.00;100385.97;4975784;28;20027;-82
2023/01/13 02:28:06;;;;;;;19.05;4.03;;;;;;;6.42;100.00;100391.19;4977185;28;20109;-82
2023/01/13 02:33:30;;;;;;;26.85;4.57;;;;;;;6.41;100.00;100392.09;4977113;28;20502;-83
2023/01/13 02:36:03;;;;;;;27.40;4.55;;;;;;;6.36;100.00;100388.09;4975348;28;20038;-83
2023/01/13 02:38:50;;;;;;;30.17;5.97;;;;;;;6.39;100.00;100385.38;4976799;28;20034;-83
2023/01/13 02:44:11;;;;;;;30.45;5.13;;;;;;;6.25;100.00;100361.28;4976939;28;20097;-82
2023/01/13 02:46:50;;;;;;;22.13;4.80;;;;;;;6.37;100.00;100370.06;4976937;28;20027;-78
2023/01/13 02:49:42;;;;;;;25.75;5.05;;;;;;;6.22;100.00;100340.13;4976659;28;20034;-83
2023/01/13 02:52:23;;;;;;;26.48;5.05;;;;;;;6.34;100.00;100370.25;4975679;28;20074;-83
2023/01/13 02:54:54;;;;;;;26.70;4.75;;;;;;;6.35;100.00;100366.78;4976344;28;20031;-80
2023/01/13 02:57:21;;;;;;;28.30;3.83;;;;;;;6.27;100.00;100348.38;4976734;28;20037;-82
2023/01/13 02:59:48;;;;;;;26.02;4.03;;;;;;;6.42;100.00;100360.41;4955733;29;20117;-76
2023/01/13 03:02:18;;;;;;;26.65;4.07;;;;;;;6.44;100.00;100357.75;4957378;29;20062;-83
2023/01/13 03:04:51;;;;;;;22.53;4.90;;;;;;;6.41;100.00;100351.06;4957020;29;20475;-83
2023/01/13 03:07:48;;;;;;;24.83;4.20;;;;;;;6.42;100.00;100351.91;4956988;29;20372;-75
2023/01/13 03:10:33;;;;;;;20.30;4.03;;;;;;;6.56;100.00;100369.94;4957110;29;20103;-76
2023/01/13 03:13:20;;;;;;;21.45;4.47;;;;;;;6.61;100.00;100363.66;4956936;29;20149;-82
2023/01/13 03:16:06;;;;;;;28.40;4.88;;;;;;;6.66;100.00;100360.00;4956947;29;20027;-80
2023/01/13 03:19:00;;;;;;;24.73;3.85;;;;;;;6.72;100.00;100352.81;4956603;29;20035;-81
2023/01/13 03:21:26;;;;;;;24.02;4.25;;;;;;;6.76;100.00;100348.31;4955533;29;20122;-81
2023/01/13 03:24:16;;;;;;;24.58;4.20;;;;;;;6.76;100.00;100346.56;4956740;29;20416;-81
2023/01/13 03:26:59;;;;;;;26.45;4.47;;;;;;;6.72;100.00;100331.44;4956390;28;20110;-78
2023/01/13 03:29:49;;;;;;;18.65;4.55;;;;;;;6.78;100.00;100331.09;4956535;29;20527;-80
2023/01/13 03:32:29;;;;;;;20.65;3.22;;;;;;;6.82;100.00;100342.88;4956674;29;20038;-77
2023/01/13 03:35:30;;;;;;;21.95;4.05;;;;;;;6.56;100.00;100278.41;4956518;29;20364;-79
2023/01/13 03:38:02;;;;;;;17.47;3.77;;;;;;;6.71;100.00;100299.84;4860369;29;20052;-80
2023/01/13 03:40:34;;;;;;;21.40;4.90;;;;;;;6.60;100.00;100267.06;4859990;29;20290;-77
2023/01/13 03:45:54;;;;;;;12.45;3.85;;;;;;;6.83;99.73;100308.59;4860025;29;20040;-77
2023/01/13 03:48:25;;;;;;;18.48;3.60;;;;;;;6.74;99.62;100278.31;4859829;29;20045;-77
2023/01/13 03:50:53;;;;;;;15.05;3.00;;;;;;;6.89;97.47;100298.81;4860050;29;20034;-77
2023/01/13 03:53:25;;;;;;;10.43;2.20;;;;;;;7.01;94.46;100312.69;4859727;29;20045;-76
2023/01/13 03:55:56;;;;;;;7.97;1.55;;;;;;;7.08;94.08;100314.00;4860016;29;20120;-76
2023/01/13 03:58:34;;;;;;;9.05;2.15;;;;;;;7.10;92.88;100334.47;4844314;29;20045;-76
2023/01/13 04:01:12;;;;;;;8.70;2.00;;;;;;;7.08;91.87;100331.13;4859642;29;20540;-76
2023/01/13 04:03:53;;;;;;;8.10;1.52;;;;;;;7.10;92.72;100329.31;4859407;29;20476;-79
2023/01/13 04:06:37;;;;;;;6.78;1.30;;;;;;;6.90;92.77;100318.44;4860114;29;20421;-78
2023/01/13 04:09:20;;;;;;;7.53;1.38;;;;;;;7.01;92.13;100353.78;4859615;29;20029;-77
2023/01/13 04:11:56;;;;;;;11.60;2.03;;;;;;;6.82;92.33;100348.81;4859697;29;20033;-75
2023/01/13 04:14:24;;;;;;;5.75;1.48;;;;;;;6.79;92.62;100346.44;4941886;29;20039;-77
2023/01/13 04:16:50;;;;;;;6.97;1.20;;;;;;;6.83;92.20;100354.78;4938365;29;20454;-76
2023/01/13 04:19:15;;;;;;;5.53;1.52;;;;;;;6.89;92.88;100375.00;4955756;29;20035;-78
2023/01/13 04:21:40;;;;;;;4.85;0.98;;;;;;;6.81;94.01;100372.84;4955714;29;20081;-78
2023/01/13 04:24:07;;;;;;;7.07;1.10;;;;;;;6.79;94.50;100382.38;4955704;29;20054;-77
2023/01/13 04:26:32;;;;;;;6.72;1.75;;;;;;;6.75;95.98;100390.28;4955459;29;20034;-79
2023/01/13 04:28:58;;;;;;;7.25;1.30;;;;;;;6.71;95.96;100386.25;4955475;29;20031;-76
2023/01/13 04:31:23;;;;;;;7.45;1.00;;;;;;;6.66;96.42;100375.38;4955453;29;20027;-77
2023/01/13 04:33:48;;;;;;;9.27;1.38;;;;;;;6.51;97.27;100336.84;4955678;29;20050;-75
2023/01/13 04:36:14;;;;;;;8.38;1.67;;;;;;;6.66;97.89;100368.53;4955612;29;20019;-77
2023/01/13 04:38:39;;;;;;;11.50;1.88;;;;;;;6.60;98.54;100346.59;4954833;28;20023;-76
2023/01/13 04:41:05;;;;;;;8.68;1.55;;;;;;;6.81;99.31;100382.28;4955450;29;20027;-76
2023/01/13 04:43:30;;;;;;;8.85;1.50;;;;;;;6.84;99.51;100376.97;4955425;29;20019;-77
2023/01/13 04:45:55;;;;;;;11.07;2.03;;;;;;;6.69;100.00;100342.72;4955207;29;20035;-77
2023/01/13 04:48:21;;;;;;;10.05;2.42;;;;;;;6.87;100.00;100366.53;4955427;29;20029;-81
2023/01/13 04:50:46;;;;;;;9.95;1.80;;;;;;;6.72;100.00;100345.09;4955269;29;20427;-77
2023/01/13 04:53:11;;;;;;;6.80;1.55;;;;;;;6.80;100.00;100365.22;4955107;29;20023;-77
2023/01/13 04:55:37;;;;;;;11.50;2.10;;;;;;;6.66;100.00;100348.00;4955111;29;20102;-83
2023/01/13 04:58:07;;;;;;;9.90;2.40;;;;;;;6.46;100.00;100346.50;4954924;29;20027;-79
2023/01/13 05:00:34;;;;;;;13.90;2.35;;;;;;;6.30;100.00;100338.81;4954957;29;20091;-78
2023/01/13 05:02:59;;;;;;;12.27;2.35;;;;;;;6.30;100.00;100349.06;4955237;29;20035;-78
2023/01/13 05:05:27;;;;;;;13.57;2.20;;;;;;;6.12;100.00;100323.56;4955230;29;20042;-76
2023/01/13 05:07:52;;;;;;;13.23;2.60;;;;;;;6.17;100.00;100342.09;4954776;29;20023;-76
2023/01/13 05:10:18;;;;;;;14.18;3.58;;;;;;;5.94;100.00;100315.09;4954793;29;20115;-78
2023/01/13 05:17:59;;;;;;;13.88;3.10;;;;;;;6.00;100.00;100333.56;4935880;29;20043;-78
2023/01/13 05:20:24;;;;;;;16.95;3.25;;;;;;;6.04;100.00;100355.56;4918608;29;20027;-79
2023/01/13 05:25:38;;;;;;;15.75;2.95;;;;;;;5.96;100.00;100346.59;4935890;29;20122;-81
2023/01/13 05:28:05;;;;;;;15.05;3.42;;;;;;;5.84;100.00;100335.22;4935464;29;20051;-82
2023/01/13 05:30:35;;;;;;;14.15;3.00;;;;;;;5.98;100.00;100360.97;4935571;29;20024;-82
2023/01/13 05:33:00;;;;;;;15.05;2.53;;;;;;;4.71;100.00;100148.91;5076320;23;20425;-77
2023/01/13 05:35:27;;;;;;;17.55;3.33;;;;;;;4.97;100.00;100198.81;4954486;28;20048;-80
2023/01/13 05:37:53;;;;;;;11.05;2.75;;;;;;;6.03;100.00;100369.28;4954564;29;20027;-79
2023/01/13 05:43:21;;;;;;;18.73;3.80;;;;;;;5.87;100.00;100326.53;4954937;29;20038;-79
2023/01/13 05:45:47;;;;;;;16.85;3.85;;;;;;;6.18;100.00;100374.50;4954698;28;20027;-78
2023/01/13 05:48:13;;;;;;;18.35;3.22;;;;;;;6.16;100.00;100384.84;4954566;29;20122;-77
2023/01/13 05:50:39;;;;;;;20.05;4.13;;;;;;;6.15;100.00;100387.50;4957669;28;20114;-77
2023/01/13 05:53:04;;;;;;;17.67;3.55;;;;;;;5.98;100.00;100371.25;4958326;28;20482;-77
2023/01/13 05:55:30;;;;;;;14.18;2.88;;;;;;;6.12;100.00;100405.59;4958237;29;20039;-78
2023/01/13 05:57:55;;;;;;;18.92;3.78;;;;;;;6.11;100.00;100404.78;4958230;29;20467;-77
2023/01/13 06:00:21;;;;;;;22.92;4.13;;;;;;;6.08;100.00;100409.22;4958273;28;20023;-77
2023/01/13 06:02:46;;;;;;;16.00;2.83;;;;;;;5.72;100.00;100358.91;4958381;29;20487;-77
2023/01/13 06:05:11;;;;;;;13.93;2.88;;;;;;;6.00;100.00;100400.19;4958234;29;20031;-76
2023/01/13 06:07:37;;;;;;;13.63;3.45;;;;;;;5.95;100.00;100403.88;4957862;29;20035;-76
2023/01/13 06:10:02;;;;;;;15.02;3.30;;;;;;;5.88;100.00;100402.50;4957839;28;20026;-76
2023/01/13 06:12:28;;;;;;;16.85;3.17;;;;;;;5.72;100.00;100389.66;4940820;29;20422;-75
2023/01/13 06:14:53;;;;;;;15.93;3.58;;;;;;;5.86;100.00;100415.41;4940654;29;20493;-76
2023/01/13 06:17:18;;;;;;;16.33;3.10;;;;;;;5.66;100.00;100395.06;4957823;28;20028;-77
2023/01/13 06:19:44;;;;;;;18.52;4.07;;;;;;;5.64;100.00;100377.22;4957794;28;20050;-76
2023/01/13 06:22:14;;;;;;;14.80;3.42;;;;;;;5.62;100.00;100366.22;4957611;29;20033;-81
2023/01/13 06:24:39;;;;;;;16.08;3.03;;;;;;;5.90;100.00;100416.94;4957498;29;20025;-78
2023/01/13 06:27:06;;;;;;;16.23;3.45;;;;;;;5.87;100.00;100413.66;4958300;29;20031;-82
2023/01/13 06:29:32;;;;;;;16.33;2.53;;;;;;;5.90;100.00;100410.94;4957764;29;20034;-82
2023/01/13 06:32:01;;;;;;;20.00;2.83;;;;;;;5.85;100.00;100405.22;4957713;29;20031;-82
2023/01/13 06:34:26;;;;;;;13.93;2.85;;;;;;;5.87;100.00;100396.56;4936840;29;20063;-80
2023/01/13 06:36:53;;;;;;;16.70;2.88;;;;;;;5.54;100.00;100345.28;4938122;29;20030;-80
2023/01/13 06:39:23;;;;;;;22.98;3.17;;;;;;;5.85;100.00;100415.47;4938292;29;20059;-81
2023/01/13 06:44:36;;;;;;;11.98;2.28;;;;;;;5.68;100.00;100391.50;4938671;29;20070;-82
2023/01/13 06:47:02;;;;;;;14.43;2.75;;;;;;;5.83;100.00;100405.31;4938332;29;20059;-82
2023/01/13 06:49:29;;;;;;;16.45;3.28;;;;;;;5.80;100.00;100404.63;4938170;29;20031;-80
2023/01/13 06:51:54;;;;;;;21.08;3.58;;;;;;;5.62;100.00;100383.31;4937688;29;20435;-84
2023/01/13 06:54:19;;;;;;;16.15;2.90;;;;;;;5.57;100.00;100373.28;4938169;29;20048;-83
2023/01/13 06:56:45;;;;;;;15.73;2.92;;;;;;;5.75;100.00;100407.41;4938005;29;20032;-83
2023/01/13 06:59:10;;;;;;;17.38;3.15;;;;;;;5.77;100.00;100413.28;4937900;29;20436;-83
2023/01/13 07:01:35;;;;;;;15.77;3.13;;;;;;;5.46;100.00;100368.69;4937289;29;20464;-84
2023/01/13 07:04:01;;;;;;;18.85;4.10;;;;;;;5.71;100.00;100408.50;4936668;29;20028;-84
2023/01/13 07:06:27;;;;;;;17.33;2.67;;;;;;;5.90;100.00;100422.06;4937663;29;20063;-82
2023/01/13 07:08:53;;;;;;;16.67;3.13;;;;;;;5.96;100.00;100431.16;4937700;29;20476;-84
2023/01/13 07:11:18;;;;;;;18.63;3.47;;;;;;;5.90;100.00;100419.50;4935869;29;20044;-83
2023/01/13 07:16:27;;;;;;;14.25;3.40;;;;;;;5.93;100.00;100423.66;4938064;29;20055;-85
2023/01/13 07:18:53;;;;;;;21.95;3.70;;;;;;;5.96;100.00;100429.44;4937458;29;20028;-85
2023/01/13 07:21:19;;;;;;;18.73;3.17;;;;;;;5.85;100.00;100416.31;4937713;29;20027;-84
2023/01/13 07:23:45;;;;;;;18.10;3.42;;;;;;;5.95;100.00;100443.16;4937170;29;20035;-85
2023/01/13 07:26:11;;;;;;;18.85;3.63;;;;;;;5.95;100.00;100432.91;4935621;29;20040;-82
2023/01/13 07:28:37;;;;;;;17.70;3.42;;;;;;;5.94;100.00;100433.00;4936490;29;20034;-77
2023/01/13 07:31:03;;;;;;;22.05;3.92;;;;;;;5.89;100.00;100434.91;4951400;23;20137;-85
2023/01/13 07:33:32;;;;;;;13.77;3.38;;;;;;;5.82;100.00;100429.28;4956592;29;20042;-85
2023/01/13 07:36:06;;;;;;;19.92;4.60;;;;;;;5.58;100.00;100399.72;4939147;29;20023;-82
2023/01/13 07:38:33;;;;;;;24.20;4.45;;;;;;;5.88;100.00;100446.06;4956232;29;20367;-76
2023/01/13 07:43:30;;;;;;;16.75;2.90;;;;;;;5.91;100.00;100433.97;4956317;29;20035;-85
2023/01/13 07:43:47;;;;;;;17.98;3.53;;;;;;;5.89;99.83;100440.84;4956031;29;20431;-79
2023/01/13 07:46:16;;;;;;;16.42;4.10;;;;;;;5.90;100.00;100445.13;4955972;28;20028;-84
2023/01/13 07:49:00;;;;;;;19.92;3.03;;;;;;;5.87;99.64;100450.38;4955517;28;20881;-84
2023/01/13 07:54:21;;;;;;;21.95;4.88;;;;;;;4.85;99.59;100292.34;4914891;29;20046;-90
2023/01/13 07:56:47;;;;;;;20.55;3.78;;;;;;;5.65;99.22;100411.34;4965477;23;20043;-93
2023/01/13 07:59:21;;;;;;;20.30;3.70;;;;;;;5.56;98.82;100398.97;4956650;29;20078;-85
2023/01/13 08:01:46;;;;;;;19.02;3.90;;;;;;;5.60;98.45;100403.03;4960219;29;20027;-95
2023/01/13 08:04:12;;;;;;;19.25;4.25;;;;;;;5.83;98.29;100441.19;4943009;29;20089;-93
2023/01/13 08:06:49;;;;;;;16.30;3.08;;;;;;;5.79;98.41;100436.28;4962469;29;20082;-92
2023/01/13 08:09:14;;;;;;;16.73;2.85;;;;;;;5.66;97.94;100413.81;4960421;29;20031;-94
2023/01/13 08:18:53;;;;;;;17.98;3.00;;;;;;;6.01;98.29;100463.38;4958411;28;20106;-91
2023/01/13 08:24:55;;;;;;;18.63;3.17;;;;;;;6.14;97.31;100478.13;4916541;29;20046;-84
2023/01/13 08:27:42;;;;;;;25.65;5.05;;;;;;;6.18;97.19;100474.50;4961560;29;20037;-87
2023/01/13 08:30:24;;;;;;;17.90;3.33;;;;;;;5.37;97.14;100343.53;4960248;29;20039;-92
2023/01/13 08:32:58;;;;;;;15.70;3.30;;;;;;;4.98;96.84;100276.38;4964669;29;20026;-90
2023/01/13 08:38:39;;;;;;;15.38;4.00;;;;;;;6.15;97.38;100470.34;5074107;28;20048;-87
2023/01/13 08:41:14;;;;;;;21.05;3.92;;;;;;;6.34;97.23;100495.91;5074491;28;20036;-81
2023/01/13 08:43:39;;;;;;;18.60;4.50;;;;;;;6.26;96.94;100470.63;5075517;28;20042;-90
2023/01/13 08:46:05;;;;;;;21.45;3.47;;;;;;;6.41;97.32;100489.56;5075375;28;20080;-87
2023/01/13 08:48:31;;;;;;;19.50;3.38;;;;;;;6.49;97.57;100487.44;5074099;28;20387;-86
2023/01/13 08:51:01;;;;;;;19.90;4.85;;;;;;;6.47;97.33;100484.09;5089001;28;20040;-88
2023/01/13 08:53:27;;;;;;;19.35;3.63;;;;;;;6.38;96.59;100446.09;5074750;28;20029;-92
2023/01/13 08:55:52;;;;;;;22.35;3.70;;;;;;;6.64;96.04;100490.94;5091262;28;20380;-89
2023/01/13 08:58:17;;;;;;;20.15;4.18;;;;;;;6.59;96.72;100501.44;5073380;28;20029;-83
2023/01/13 09:00:43;;;;;;;27.27;4.50;;;;;;;6.41;96.60;100453.66;5070118;28;20059;-83
2023/01/13 09:03:08;;;;;;;26.35;3.50;;;;;;;6.51;96.62;100467.66;5070006;28;20048;-81
2023/01/13 09:05:34;;;;;;;20.23;3.75;;;;;;;6.88;96.20;100512.75;5070067;28;20387;-81
2023/01/13 09:07:59;;;;;;;13.85;3.28;;;;;;;7.05;95.67;100513.59;5069874;28;20118;-81
2023/01/13 09:10:25;;;;;;;26.95;4.35;;;;;;;6.46;94.55;100395.22;5069577;28;20490;-82
2023/01/13 09:15:34;;;;;;;18.52;3.72;;;;;;;7.26;93.13;100502.16;5070895;28;20490;-83
2023/01/13 09:18:02;;;;;;;19.40;4.18;;;;;;;7.18;94.73;100504.34;5069521;28;20025;-82
2023/01/13 09:20:27;;;;;;;17.63;4.35;;;;;;;6.93;95.17;100471.44;5069356;28;20391;-81
2023/01/13 09:22:52;;;;;;;22.00;3.97;;;;;;;7.07;96.37;100497.19;5070234;28;20028;-86
2023/01/13 09:25:18;;;;;;;19.95;4.65;;;;;;;7.17;95.32;100512.94;5069755;28;20111;-82
2023/01/13 09:27:43;;;;;;;19.83;3.60;;;;;;;6.89;94.47;100475.91;5086703;28;20124;-82
2023/01/13 09:30:09;;;;;;;20.88;3.70;;;;;;;7.23;95.03;100524.63;5069326;28;20083;-81
2023/01/13 09:32:37;;;;;;;21.58;5.13;;;;;;;6.86;95.29;100477.78;5068793;28;20032;-77
2023/01/13 09:35:03;;;;;;;17.13;3.55;;;;;;;7.00;95.88;100508.72;5068770;28;20151;-78
2023/01/13 09:37:34;;;;;;;16.73;3.38;;;;;;;7.12;95.99;100540.59;5068682;28;20052;-78
2023/01/13 09:40:01;;;;;;;23.55;5.07;;;;;;;7.02;95.48;100534.31;5068370;28;20035;-78
2023/01/13 09:45:52;;;;;;;19.07;3.47;;;;;;;7.15;94.85;100538.69;5063387;28;20044;-76
2023/01/13 09:48:21;;;;;;;30.08;5.13;;;;;;;7.27;94.19;100551.78;5055261;28;20025;-77
2023/01/13 09:50:59;;;;;;;21.50;4.25;;;;;;;7.28;94.91;100554.28;5055365;28;20020;-78
2023/01/13 09:53:39;;;;;;;19.52;4.85;;;;;;;7.04;94.40;100515.31;5055206;28;20033;-78
2023/01/13 09:56:05;;;;;;;23.25;4.45;;;;;;;7.09;94.43;100526.19;5055141;28;20017;-78
2023/01/13 09:58:31;;;;;;;20.15;4.75;;;;;;;7.37;94.05;100564.03;5055261;28;20036;-79
2023/01/13 10:01:10;;;;;;;24.33;4.15;;;;;;;7.36;95.82;100577.81;5055181;28;20420;-75
2023/01/13 10:03:36;;;;;;;17.63;4.10;;;;;;;7.11;98.14;100552.63;5055280;28;20094;-80
2023/01/13 10:06:12;;;;;;;22.88;5.07;;;;;;;7.24;98.17;100570.75;5055199;28;20460;-83
2023/01/13 10:08:39;;;;;;;22.08;4.68;;;;;;;6.92;97.43;100515.16;5054868;28;20032;-78
2023/01/13 10:13:59;;;;;;;22.00;5.07;;;;;;;7.15;97.44;100537.88;5054818;28;20503;-80
2023/01/13 10:16:35;;;;;;;17.70;4.38;;;;;;;7.27;98.92;100578.28;5053758;28;20037;-74
2023/01/13 10:19:00;;;;;;;21.83;4.18;;;;;;;7.12;100.00;100569.69;5054835;28;20021;-78
2023/01/13 10:21:32;;;;;;;24.38;4.80;;;;;;;7.01;100.00;100587.38;5054707;28;20032;-76
2023/01/13 10:24:45;;;;;;;18.80;4.05;;;;;;;6.83;100.00;100578.06;5054663;28;20077;-77
2023/01/13 10:27:31;;;;;;;26.02;5.90;;;;;;;6.78;100.00;100583.41;5050685;28;20033;-77
2023/01/13 10:29:57;;;;;;;22.00;4.30;;;;;;;6.78;100.00;100600.56;5054676;28;20033;-78
2023/01/13 10:32:22;;;;;;;23.00;4.15;;;;;;;6.65;100.00;100579.00;5054576;28;20025;-78
2023/01/13 10:34:50;;;;;;;22.40;4.07;;;;;;;6.79;100.00;100602.25;5054443;28;20502;-78
2023/01/13 10:37:27;;;;;;;24.45;5.25;;;;;;;6.76;100.00;100610.91;5054176;28;20045;-78
2023/01/13 10:39:59;;;;;;;25.17;4.72;;;;;;;6.76;100.00;100623.72;5054371;28;20025;-78
2023/01/13 10:42:24;;;;;;;26.38;5.57;;;;;;;6.75;100.00;100613.53;5054503;28;20021;-87
2023/01/13 10:44:54;;;;;;;24.77;4.43;;;;;;;6.73;100.00;100620.50;5054460;28;20054;-92
2023/01/13 10:47:31;;;;;;;19.70;4.30;;;;;;;6.69;100.00;100606.19;5054545;28;20025;-90
2023/01/13 10:50:23;;;;;;;24.27;5.40;;;;;;;6.88;100.00;100617.13;5054722;28;20120;-87
2023/01/13 10:53:00;;;;;;;19.35;4.22;;;;;;;6.61;100.00;100566.34;5054607;28;20056;-87
2023/01/13 10:55:32;;;;;;;21.60;5.18;;;;;;;6.79;100.00;100574.84;5054038;28;20029;-90
2023/01/13 10:58:16;;;;;;;17.00;4.05;;;;;;;7.01;100.00;100596.81;5053759;28;20051;-88
2023/01/13 11:00:41;;;;;;;25.45;4.60;;;;;;;7.05;100.00;100606.00;5055745;28;20017;-93
2023/01/13 11:03:18;;;;;;;19.25;4.75;;;;;;;7.13;100.00;100606.44;5055209;28;20025;-83
2023/01/13 11:05:50;;;;;;;18.95;4.80;;;;;;;6.95;100.00;100589.44;5055236;28;20124;-86
2023/01/13 11:08:18;;;;;;;19.05;5.28;;;;;;;7.04;100.00;100612.88;5054336;28;20037;-78
2023/01/13 11:10:47;;;;;;;19.42;3.88;;;;;;;7.08;100.00;100622.13;5053614;28;20020;-75
2023/01/13 11:13:20;;;;;;;18.38;5.03;;;;;;;6.71;100.00;100559.00;5053625;28;20467;-77
2023/01/13 11:15:54;;;;;;;23.10;4.75;;;;;;;7.04;100.00;100624.91;5054462;28;20045;-75
2023/01/13 11:18:42;;;;;;;19.92;4.35;;;;;;;7.10;100.00;100622.84;5053650;28;20032;-73
2023/01/13 11:21:23;;;;;;;19.25;4.53;;;;;;;7.16;100.00;100619.13;5053928;28;20047;-77
2023/01/13 11:24:17;;;;;;;20.00;4.68;;;;;;;7.32;100.00;100629.44;5053719;28;20021;-75
2023/01/13 11:26:52;;;;;;;25.67;4.85;;;;;;;7.35;100.00;100624.97;5053607;28;20399;-74
2023/01/13 11:29:27;;;;;;;23.63;4.78;;;;;;;7.41;100.00;100629.78;5052469;28;20111;-77
2023/01/13 11:32:02;;;;;;;18.30;3.95;;;;;;;7.18;100.00;100587.34;5052668;28;20060;-77
2023/01/13 11:34:39;;;;;;;26.40;4.53;;;;;;;7.26;100.00;100625.44;5053357;28;20108;-74
2023/01/13 11:37:25;;;;;;;21.42;4.97;;;;;;;7.25;100.00;100635.78;5052885;28;20041;-73
2023/01/13 11:39:58;;;;;;;18.48;3.95;;;;;;;7.18;100.00;100620.72;5053327;28;20472;-75
2023/01/13 11:42:30;;;;;;;17.33;3.88;;;;;;;6.95;99.78;100581.72;5053091;28;20444;-74
2023/01/13 11:45:16;;;;;;;22.48;4.80;;;;;;;7.24;99.88;100623.88;5053131;28;20087;-76
2023/01/13 11:47:46;;;;;;;19.33;3.80;;;;;;;7.21;99.52;100604.31;5053307;28;20021;-79
2023/01/13 11:50:20;;;;;;;19.13;4.60;;;;;;;7.40;99.92;100655.56;5052947;28;20098;-76
2023/01/13 11:53:00;;;;;;;19.08;4.53;;;;;;;7.46;98.55;100638.06;5053167;28;20044;-74
2023/01/13 11:55:48;;;;;;;18.65;3.40;;;;;;;7.55;97.55;100649.59;5053146;28;20090;-76
2023/01/13 11:58:30;;;;;;;18.20;3.53;;;;;;;7.63;96.68;100654.34;5052890;28;20028;-74
2023/01/13 12:01:01;;;;;;;18.17;4.13;;;;;;;7.61;96.75;100664.69;5053180;28;20438;-76
2023/01/13 12:03:45;;;;;;;22.70;4.57;;;;;;;7.59;96.74;100678.53;5052956;28;20100;-83
2023/01/13 12:06:27;;;;;;;19.58;3.67;;;;;;;7.53;97.11;100656.56;5052915;28;20392;-77
2023/01/13 12:09:10;;;;;;;22.17;3.75;;;;;;;7.52;97.57;100664.34;5052766;28;20025;-77
2023/01/13 12:14:52;;;;;;;18.50;3.75;;;;;;;7.42;96.72;100674.28;5052949;28;20103;-78
2023/01/13 12:17:54;;;;;;;21.30;3.78;;;;;;;7.50;95.93;100686.72;5144562;22;20023;-79
2023/01/13 12:20:42;;;;;;;18.75;3.10;;;;;;;7.18;96.39;100636.13;5072502;28;20449;-75
2023/01/13 12:23:31;;;;;;;21.95;4.35;;;;;;;7.35;96.18;100676.34;5072775;28;20082;-77
2023/01/13 12:26:12;;;;;;;22.20;3.72;;;;;;;7.46;96.23;100688.63;5072468;28;20025;-80
2023/01/13 12:29:00;;;;;;;20.67;3.53;;;;;;;7.47;95.45;100698.84;5072598;28;20103;-78
2023/01/13 12:31:26;;;;;;;18.58;3.13;;;;;;;7.49;95.65;100706.47;5072681;28;20274;-77